createdAt,value
2017-09-13T00:00:29.038Z,13.80
2017-09-13T00:02:56.945Z,11.40
2017-09-13T00:05:24.556Z,11.03
2017-09-13T00:07:52.492Z,26.43
2017-09-13T00:10:20.064Z,10.00
2017-09-13T00:12:47.675Z,10.97
2017-09-13T00:15:15.397Z,7.83
2017-09-13T00:17:43.176Z,7.40
2017-09-13T00:20:10.836Z,10.53
2017-09-13T00:22:38.465Z,7.70
2017-09-13T00:25:06.132Z,9.33
2017-09-13T00:27:33.693Z,15.23
2017-09-13T00:30:01.376Z,16.90
2017-09-13T00:32:28.944Z,12.53
2017-09-13T00:34:56.498Z,7.43
2017-09-13T00:37:24.555Z,10.13
2017-09-13T00:39:52.094Z,7.30
2017-09-13T00:42:19.662Z,8.40
2017-09-13T00:44:47.248Z,7.13
2017-09-13T00:47:14.785Z,14.37
2017-09-13T00:49:42.371Z,8.70
2017-09-13T00:52:09.972Z,16.47
2017-09-13T00:54:37.507Z,19.87
2017-09-13T00:57:05.115Z,12.67
2017-09-13T00:59:32.647Z,12.20
2017-09-13T01:02:00.210Z,7.77
2017-09-13T01:04:27.787Z,10.13
2017-09-13T01:06:55.623Z,8.77
2017-09-13T01:09:23.192Z,8.90
2017-09-13T01:11:50.777Z,8.97
2017-09-13T01:14:18.355Z,11.20
2017-09-13T01:16:46.920Z,13.63
2017-09-13T01:19:14.514Z,10.17
2017-09-13T01:21:42.172Z,10.63
2017-09-13T01:24:09.807Z,11.20
2017-09-13T01:26:37.373Z,8.90
2017-09-13T01:29:05.040Z,16.90
2017-09-13T01:31:32.636Z,9.83
2017-09-13T01:34:00.980Z,15.80
2017-09-13T01:36:29.283Z,13.17
2017-09-13T01:38:56.868Z,19.50
2017-09-13T01:41:24.485Z,13.03
2017-09-13T01:43:52.396Z,8.17
2017-09-13T01:46:20.097Z,11.80
2017-09-13T01:48:47.983Z,8.53
2017-09-13T01:51:15.892Z,18.37
2017-09-13T01:53:43.462Z,9.90
2017-09-13T01:56:11.040Z,9.73
2017-09-13T01:58:39.674Z,13.23
2017-09-13T02:01:07.338Z,9.90
2017-09-13T02:03:35.805Z,10.87
2017-09-13T02:06:04.238Z,15.43
2017-09-13T02:08:31.783Z,17.80
2017-09-13T02:10:59.421Z,17.27
2017-09-13T02:13:27.718Z,20.23
2017-09-13T02:15:55.286Z,11.20
2017-09-13T02:18:23.369Z,12.50
2017-09-13T02:20:50.940Z,13.70
2017-09-13T02:23:18.473Z,12.67
2017-09-13T02:25:46.080Z,10.30
2017-09-13T02:28:13.652Z,18.90
2017-09-13T02:30:41.197Z,17.20
2017-09-13T02:33:08.715Z,15.13
2017-09-13T02:35:36.352Z,16.33
2017-09-13T02:38:03.916Z,11.03
2017-09-13T02:40:31.538Z,8.90
2017-09-13T02:42:59.106Z,16.20
2017-09-13T02:45:26.648Z,12.53
2017-09-13T02:47:54.216Z,16.00
2017-09-13T02:50:22.588Z,12.80
2017-09-13T02:52:50.618Z,18.40
2017-09-13T02:55:18.792Z,15.80
2017-09-13T02:57:46.459Z,10.70
2017-09-13T03:00:14.015Z,12.17
2017-09-13T03:02:41.545Z,12.20
2017-09-13T03:05:09.441Z,16.73
2017-09-13T03:07:37.038Z,14.77
2017-09-13T03:10:04.563Z,16.57
2017-09-13T03:12:32.914Z,27.60
2017-09-13T03:15:01.270Z,15.47
2017-09-13T03:17:28.810Z,22.80
2017-09-13T03:19:56.403Z,15.17
2017-09-13T03:22:24.049Z,14.20
2017-09-13T03:24:52.540Z,20.40
2017-09-13T03:27:20.150Z,22.70
2017-09-13T03:29:47.700Z,22.43
2017-09-13T03:32:16.130Z,21.23
2017-09-13T03:34:43.741Z,21.60
2017-09-13T03:37:11.312Z,16.93
2017-09-13T03:39:38.849Z,19.30
2017-09-13T03:42:07.200Z,22.37
2017-09-13T03:44:34.792Z,23.73
2017-09-13T03:47:02.367Z,21.23
2017-09-13T03:49:29.998Z,29.20
2017-09-13T03:51:57.570Z,27.70
2017-09-13T03:54:26.651Z,33.23
2017-09-13T03:56:54.287Z,23.83
2017-09-13T03:59:21.854Z,33.17
2017-09-13T04:01:49.393Z,20.13
2017-09-13T04:04:18.143Z,23.07
2017-09-13T04:06:46.454Z,24.13
2017-09-13T04:09:13.985Z,23.30
2017-09-13T04:11:41.974Z,25.00
2017-09-13T04:14:09.499Z,27.30
2017-09-13T04:16:37.048Z,22.17
2017-09-13T04:19:04.665Z,23.77
2017-09-13T04:21:32.241Z,31.33
2017-09-13T04:24:00.849Z,23.47
2017-09-13T04:26:28.618Z,27.40
2017-09-13T04:28:56.170Z,19.90
2017-09-13T04:31:23.766Z,22.03
2017-09-13T04:33:51.315Z,26.53
2017-09-13T04:36:18.909Z,21.37
2017-09-13T04:38:46.452Z,22.37
2017-09-13T04:41:14.230Z,22.27
2017-09-13T04:43:41.821Z,26.67
2017-09-13T04:46:09.402Z,21.17
2017-09-13T04:48:37.534Z,24.23
2017-09-13T04:51:05.200Z,21.43
2017-09-13T04:53:32.736Z,24.57
2017-09-13T04:56:00.303Z,24.33
2017-09-13T04:58:27.834Z,18.90
2017-09-13T05:00:55.437Z,17.90
2017-09-13T05:03:23.010Z,24.70
2017-09-13T05:05:51.398Z,21.30
2017-09-13T05:08:19.007Z,14.20
2017-09-13T05:10:46.595Z,21.70
2017-09-13T05:13:14.344Z,16.33
2017-09-13T05:15:42.045Z,18.27
2017-09-13T05:18:10.590Z,15.93
2017-09-13T05:20:38.118Z,17.20
2017-09-13T05:23:06.418Z,17.33
2017-09-13T05:25:33.985Z,20.83
2017-09-13T05:28:01.563Z,17.80
2017-09-13T05:30:29.162Z,15.30
2017-09-13T05:32:57.602Z,13.90
2017-09-13T05:35:25.228Z,15.03
2017-09-13T05:37:52.780Z,21.83
2017-09-13T05:40:21.248Z,16.37
2017-09-13T05:42:48.829Z,17.20
2017-09-13T05:45:16.453Z,19.50
2017-09-13T05:47:44.147Z,16.83
2017-09-13T05:50:11.728Z,12.80
2017-09-13T05:52:39.277Z,12.33
2017-09-13T05:55:07.143Z,19.90
2017-09-13T05:57:34.646Z,12.70
2017-09-13T06:00:02.261Z,13.43
2017-09-13T06:02:29.825Z,17.63
2017-09-13T06:04:57.351Z,12.60
2017-09-13T06:07:26.079Z,13.93
2017-09-13T06:09:53.968Z,12.23
2017-09-13T06:12:21.517Z,12.60
2017-09-13T06:14:49.031Z,13.83
2017-09-13T06:17:16.644Z,14.60
2017-09-13T06:19:44.158Z,14.67
2017-09-13T06:22:11.687Z,18.60
2017-09-13T06:24:39.279Z,16.37
2017-09-13T06:27:07.619Z,17.63
2017-09-13T06:29:35.195Z,12.87
2017-09-13T06:32:03.159Z,12.20
2017-09-13T06:34:30.679Z,10.87
2017-09-13T06:36:58.198Z,8.93
2017-09-13T06:39:26.517Z,10.23
2017-09-13T06:41:54.070Z,12.10
2017-09-13T06:44:21.600Z,13.93
2017-09-13T06:46:49.913Z,10.67
2017-09-13T06:49:17.439Z,12.53
2017-09-13T06:51:44.960Z,14.07
2017-09-13T06:54:12.551Z,12.03
2017-09-13T06:56:40.181Z,13.30
2017-09-13T06:59:07.847Z,14.73
2017-09-13T07:01:35.476Z,11.97
2017-09-13T07:04:03.019Z,13.63
2017-09-13T07:06:31.525Z,7.30
2017-09-13T07:08:59.425Z,8.47
2017-09-13T07:11:26.997Z,6.90
2017-09-13T07:13:54.670Z,5.57
2017-09-13T07:16:22.269Z,12.60
2017-09-13T07:18:49.846Z,7.23
2017-09-13T07:21:17.415Z,9.83
2017-09-13T07:23:45.002Z,10.10
2017-09-13T07:26:13.433Z,5.10
2017-09-13T07:28:41.063Z,6.53
2017-09-13T07:31:08.664Z,7.50
2017-09-13T07:33:36.277Z,7.53
2017-09-13T07:36:03.944Z,12.50
2017-09-13T07:38:31.590Z,9.73
2017-09-13T07:40:59.194Z,11.10
2017-09-13T07:43:26.729Z,8.57
2017-09-13T07:45:54.325Z,11.20
2017-09-13T07:48:22.411Z,5.97
2017-09-13T07:50:50.348Z,8.77
2017-09-13T07:53:18.048Z,10.90
2017-09-13T07:55:45.615Z,8.17
2017-09-13T07:58:13.255Z,5.10
2017-09-13T08:00:41.502Z,12.60
2017-09-13T08:03:09.112Z,14.73
2017-09-13T08:05:36.891Z,14.50
2017-09-13T08:08:04.470Z,9.30
2017-09-13T08:10:32.192Z,9.70
2017-09-13T08:13:00.307Z,5.20
2017-09-13T08:15:27.879Z,11.03
2017-09-13T08:17:55.485Z,18.73
2017-09-13T08:20:22.999Z,10.37
2017-09-13T08:22:50.631Z,12.43
2017-09-13T08:25:18.163Z,10.50
2017-09-13T08:27:46.016Z,6.50
2017-09-13T08:30:13.554Z,10.33
2017-09-13T08:32:41.324Z,9.80
2017-09-13T08:35:10.269Z,13.13
2017-09-13T08:37:38.314Z,10.53
2017-09-13T08:40:06.004Z,20.17
2017-09-13T08:42:33.605Z,13.23
2017-09-13T08:45:01.220Z,11.23
2017-09-13T08:47:29.416Z,11.13
2017-09-13T08:49:56.972Z,7.60
2017-09-13T08:52:25.323Z,5.20
2017-09-13T08:54:52.820Z,8.00
2017-09-13T08:57:20.420Z,12.07
2017-09-13T08:59:48.165Z,8.30
2017-09-13T09:02:15.721Z,9.67
2017-09-13T09:04:43.421Z,6.67
2017-09-13T09:07:11.007Z,5.53
2017-09-13T09:09:38.548Z,8.60
2017-09-13T09:12:06.054Z,4.50
2017-09-13T09:14:33.679Z,4.10
2017-09-13T09:17:01.282Z,3.50
2017-09-13T09:19:29.291Z,9.57
2017-09-13T09:21:56.894Z,4.10
2017-09-13T09:24:24.468Z,3.23
2017-09-13T09:26:52.053Z,4.60
2017-09-13T09:29:19.934Z,12.40
2017-09-13T09:31:47.455Z,6.60
2017-09-13T09:34:15.021Z,4.57
2017-09-13T09:36:42.800Z,6.80
2017-09-13T09:39:11.473Z,10.30
2017-09-13T09:41:39.260Z,6.30
2017-09-13T09:44:06.821Z,3.43
2017-09-13T09:46:34.388Z,5.40
2017-09-13T09:49:01.978Z,8.53
2017-09-13T09:51:29.765Z,11.50
2017-09-13T09:53:57.647Z,4.83
2017-09-13T09:56:25.318Z,6.07
2017-09-13T09:58:53.095Z,11.13
2017-09-13T10:01:20.696Z,6.63
2017-09-13T10:03:48.259Z,3.60
2017-09-13T10:06:17.285Z,3.83
2017-09-13T10:08:44.857Z,4.63
2017-09-13T10:11:12.588Z,6.23
2017-09-13T10:13:40.610Z,2.70
2017-09-13T10:16:08.292Z,2.57
2017-09-13T10:18:36.737Z,3.53
2017-09-13T10:21:04.528Z,4.33
2017-09-13T10:23:32.203Z,6.27
2017-09-13T10:25:59.794Z,6.53
2017-09-13T10:28:27.412Z,7.10
2017-09-13T10:30:56.606Z,2.83
2017-09-13T10:33:24.279Z,5.87
2017-09-13T10:35:51.950Z,4.00
2017-09-13T10:38:19.765Z,6.43
2017-09-13T10:40:47.363Z,3.27
2017-09-13T10:43:15.006Z,4.40
2017-09-13T10:45:42.586Z,6.07
2017-09-13T10:48:10.153Z,8.20
2017-09-13T10:50:38.260Z,9.63
2017-09-13T10:53:05.819Z,14.43
2017-09-13T10:55:33.415Z,8.50
2017-09-13T10:58:01.545Z,6.73
2017-09-13T11:00:29.196Z,3.53
2017-09-13T11:02:56.847Z,13.13
2017-09-13T11:05:25.375Z,4.10
2017-09-13T11:07:52.936Z,2.70
2017-09-13T11:10:20.449Z,4.73
2017-09-13T11:12:48.855Z,14.00
2017-09-13T11:15:16.387Z,3.63
2017-09-13T11:17:43.984Z,9.13
2017-09-13T11:20:11.772Z,2.07
2017-09-13T11:22:40.130Z,5.20
2017-09-13T11:25:08.794Z,5.53
2017-09-13T11:27:36.351Z,5.70
2017-09-13T11:30:04.236Z,5.60
2017-09-13T11:32:32.221Z,7.80
2017-09-13T11:34:59.816Z,2.83
2017-09-13T11:37:27.447Z,8.33
2017-09-13T11:39:55.717Z,6.97
2017-09-13T11:42:23.947Z,3.83
2017-09-13T11:44:51.534Z,19.00
2017-09-13T11:47:19.154Z,2.23
2017-09-13T11:49:46.712Z,3.90
2017-09-13T11:52:14.261Z,8.27
2017-09-13T11:54:42.489Z,3.13
2017-09-13T11:57:10.108Z,7.90
2017-09-13T11:59:37.755Z,3.73
2017-09-13T12:02:05.276Z,5.20
2017-09-13T12:04:32.908Z,1.90
2017-09-13T12:07:00.541Z,6.60
2017-09-13T12:09:28.127Z,4.40
2017-09-13T12:11:56.487Z,2.47
2017-09-13T12:14:24.880Z,4.70
2017-09-13T12:16:52.447Z,6.23
2017-09-13T12:19:19.994Z,6.07
2017-09-13T12:21:47.563Z,4.83
2017-09-13T12:24:15.104Z,3.20
2017-09-13T12:26:42.642Z,5.80
2017-09-13T12:29:10.226Z,8.60
2017-09-13T12:31:37.721Z,6.60
2017-09-13T12:34:05.280Z,4.90
2017-09-13T12:36:33.556Z,3.10
2017-09-13T12:39:01.164Z,13.13
2017-09-13T12:41:28.698Z,2.00
2017-09-13T12:43:56.235Z,3.67
2017-09-13T12:46:26.912Z,4.90
2017-09-13T12:48:55.272Z,3.43
2017-09-13T12:51:22.855Z,9.00
2017-09-13T12:53:50.652Z,2.90
2017-09-13T12:56:19.043Z,4.87
2017-09-13T12:58:46.567Z,6.73
2017-09-13T13:01:14.132Z,13.77
2017-09-13T13:03:42.586Z,3.37
2017-09-13T13:06:10.124Z,9.53
2017-09-13T13:08:37.892Z,4.70
2017-09-13T13:11:05.507Z,6.30
2017-09-13T13:13:33.033Z,5.03
2017-09-13T13:16:00.622Z,2.30
2017-09-13T13:18:28.241Z,17.30
2017-09-13T13:20:55.785Z,11.33
2017-09-13T13:23:23.421Z,3.10
2017-09-13T13:25:51.777Z,2.90
2017-09-13T13:28:19.435Z,2.60
2017-09-13T13:30:47.143Z,1.87
2017-09-13T13:33:15.780Z,6.23
2017-09-13T13:35:43.638Z,4.53
2017-09-13T13:38:11.974Z,9.97
2017-09-13T13:40:40.466Z,3.80
2017-09-13T13:43:08.016Z,7.90
2017-09-13T13:45:35.672Z,2.30
2017-09-13T13:48:03.196Z,5.43
2017-09-13T13:50:31.023Z,12.97
2017-09-13T13:52:58.704Z,13.50
2017-09-13T13:55:26.423Z,4.57
2017-09-13T13:57:53.977Z,5.90
2017-09-13T14:00:22.318Z,4.60
2017-09-13T14:02:50.156Z,4.87
2017-09-13T14:05:17.652Z,4.00
2017-09-13T14:07:45.235Z,7.30
2017-09-13T14:10:12.864Z,4.43
2017-09-13T14:12:40.421Z,6.30
2017-09-13T14:15:08.015Z,7.93
2017-09-13T14:17:35.746Z,10.70
2017-09-13T14:20:03.270Z,4.77
2017-09-13T14:22:30.867Z,3.60
2017-09-13T14:24:58.532Z,1.67
2017-09-13T14:27:26.048Z,1.47
2017-09-13T14:29:53.622Z,2.17
2017-09-13T14:32:21.178Z,5.90
2017-09-13T14:34:48.793Z,1.50
2017-09-13T14:37:16.448Z,3.87
2017-09-13T14:39:46.488Z,5.70
2017-09-13T14:42:14.068Z,3.07
2017-09-13T14:44:41.750Z,2.10
2017-09-13T14:47:09.336Z,5.10
2017-09-13T14:49:36.902Z,8.63
2017-09-13T14:52:04.704Z,5.23
2017-09-13T14:54:34.488Z,4.50
2017-09-13T14:57:02.827Z,2.00
2017-09-13T14:59:32.131Z,3.53
2017-09-13T15:01:59.895Z,4.10
2017-09-13T15:04:27.451Z,5.57
2017-09-13T15:06:55.038Z,3.57
2017-09-13T15:09:22.640Z,5.77
2017-09-13T15:11:50.233Z,5.30
2017-09-13T15:14:17.763Z,4.60
2017-09-13T15:16:45.364Z,12.70
2017-09-13T15:19:12.945Z,1.97
2017-09-13T15:21:41.412Z,5.90
2017-09-13T15:24:09.287Z,3.90
2017-09-13T15:26:37.679Z,5.83
2017-09-13T15:29:05.288Z,4.87
2017-09-13T15:31:32.942Z,2.70
2017-09-13T15:34:00.476Z,2.00
2017-09-13T15:36:28.070Z,4.60
2017-09-13T15:38:55.673Z,2.13
2017-09-13T15:41:23.268Z,4.50
2017-09-13T15:43:50.864Z,3.83
2017-09-13T15:46:18.491Z,3.03
2017-09-13T15:48:46.833Z,6.23
2017-09-13T15:51:14.944Z,8.13
2017-09-13T15:53:43.259Z,3.53
2017-09-13T15:56:11.153Z,2.17
2017-09-13T15:58:54.463Z,3.47
2017-09-13T16:01:22.581Z,21.30
2017-09-13T16:03:50.415Z,5.17
2017-09-13T16:06:18.783Z,6.40
2017-09-13T16:08:48.073Z,4.83
2017-09-13T16:11:17.909Z,3.60
2017-09-13T16:13:48.157Z,1.27
2017-09-13T16:16:17.739Z,6.17
2017-09-13T16:18:54.857Z,4.90
2017-09-13T16:21:25.481Z,5.70
2017-09-13T16:23:54.843Z,7.63
2017-09-13T16:26:22.498Z,5.33
2017-09-13T16:28:50.569Z,1.30
2017-09-13T16:31:18.084Z,17.17
2017-09-13T16:33:48.045Z,3.70
2017-09-13T16:36:17.131Z,4.07
2017-09-13T16:38:45.773Z,1.57
2017-09-13T16:41:14.720Z,2.70
2017-09-13T16:43:42.341Z,9.60
2017-09-13T16:46:09.935Z,5.33
2017-09-13T16:48:37.505Z,1.50
2017-09-13T16:51:05.894Z,2.20
2017-09-13T16:53:33.461Z,11.10
2017-09-13T16:56:02.514Z,7.90
2017-09-13T16:58:30.154Z,5.53
2017-09-13T17:00:57.692Z,3.47
2017-09-13T17:03:25.538Z,4.37
2017-09-13T17:05:53.914Z,4.23
2017-09-13T17:08:22.817Z,5.73
2017-09-13T17:10:50.401Z,2.60
2017-09-13T17:13:18.013Z,4.03
2017-09-13T17:15:45.933Z,1.90
2017-09-13T17:18:13.818Z,4.93
2017-09-13T17:20:41.671Z,6.33
2017-09-13T17:23:09.235Z,4.50
2017-09-13T17:25:36.842Z,4.93
2017-09-13T17:28:06.454Z,6.07
2017-09-13T17:30:34.222Z,7.17
2017-09-13T17:33:01.810Z,9.63
2017-09-13T17:35:30.237Z,5.23
2017-09-13T17:37:58.563Z,9.80
2017-09-13T17:40:26.146Z,3.63
2017-09-13T17:42:53.796Z,2.27
2017-09-13T17:45:21.633Z,5.97
2017-09-13T17:47:49.270Z,1.50
2017-09-13T17:50:17.384Z,35.40
2017-09-13T17:52:45.615Z,2.20
2017-09-13T17:55:13.137Z,3.77
2017-09-13T17:57:41.225Z,3.07
2017-09-13T18:00:08.804Z,7.00
2017-09-13T18:02:43.086Z,4.17
2017-09-13T18:05:10.726Z,4.23
2017-09-13T18:07:41.391Z,6.63
2017-09-13T18:10:09.711Z,3.70
2017-09-13T18:12:40.703Z,5.77
2017-09-13T18:15:12.624Z,3.57
2017-09-13T18:17:40.833Z,5.40
2017-09-13T18:20:08.809Z,4.30
2017-09-13T18:22:36.368Z,9.43
2017-09-13T18:25:04.138Z,8.43
2017-09-13T18:27:31.749Z,9.90
2017-09-13T18:29:59.564Z,9.10
2017-09-13T18:32:27.177Z,5.60
2017-09-13T18:34:54.843Z,3.00
2017-09-13T18:37:22.693Z,6.53
2017-09-13T18:39:50.705Z,3.83
2017-09-13T18:42:18.273Z,5.53
2017-09-13T18:44:46.248Z,8.17
2017-09-13T18:47:13.798Z,1.93
2017-09-13T18:49:41.356Z,7.60
2017-09-13T18:52:08.927Z,7.53
2017-09-13T18:54:36.528Z,6.10
2017-09-13T18:57:04.040Z,2.47
2017-09-13T18:59:31.726Z,3.93
2017-09-13T19:01:59.773Z,4.20
2017-09-13T19:04:27.325Z,13.17
2017-09-13T19:06:54.997Z,4.77
2017-09-13T19:09:22.884Z,1.67
2017-09-13T19:11:50.406Z,1.87
2017-09-13T19:14:18.337Z,6.80
2017-09-13T19:16:45.890Z,5.57
2017-09-13T19:19:13.449Z,7.53
2017-09-13T19:21:42.740Z,5.90
2017-09-13T19:24:13.689Z,3.37
2017-09-13T19:26:42.116Z,3.23
2017-09-13T19:29:10.609Z,3.13
2017-09-13T19:31:38.265Z,4.27
2017-09-13T19:34:05.971Z,5.00
2017-09-13T19:36:35.623Z,3.77
2017-09-13T19:39:03.412Z,2.47
2017-09-13T19:41:34.239Z,9.90
2017-09-13T19:44:02.001Z,4.73
2017-09-13T19:46:29.712Z,6.83
2017-09-13T19:48:57.455Z,4.47
2017-09-13T19:51:25.908Z,16.73
2017-09-13T19:53:53.422Z,7.10
2017-09-13T19:56:21.878Z,10.20
2017-09-13T19:58:50.294Z,8.00
2017-09-13T20:01:18.442Z,3.73
2017-09-13T20:03:46.321Z,4.77
2017-09-13T20:06:14.059Z,10.10
2017-09-13T20:08:41.589Z,3.53
2017-09-13T20:11:09.352Z,6.67
2017-09-13T20:13:36.912Z,9.37
2017-09-13T20:16:04.566Z,9.03
2017-09-13T20:18:33.420Z,7.83
2017-09-13T20:21:00.954Z,4.70
2017-09-13T20:23:28.818Z,4.60
2017-09-13T20:25:56.737Z,5.13
2017-09-13T20:28:24.541Z,5.23
2017-09-13T20:30:52.080Z,5.33
2017-09-13T20:33:19.691Z,6.23
2017-09-13T20:35:47.251Z,5.87
2017-09-13T20:38:15.387Z,9.20
2017-09-13T20:43:17.423Z,6.77
2017-09-13T20:45:44.965Z,12.97
2017-09-13T20:48:12.523Z,9.43
2017-09-13T20:50:40.172Z,2.70
2017-09-13T20:53:07.831Z,9.20
2017-09-13T20:55:35.488Z,2.27
2017-09-13T20:58:03.068Z,5.83
2017-09-13T21:00:30.628Z,3.33
2017-09-13T21:02:58.187Z,4.87
2017-09-13T21:05:25.812Z,2.63
2017-09-13T21:07:53.410Z,6.60
2017-09-13T21:10:20.952Z,3.50
2017-09-13T21:12:48.496Z,7.60
2017-09-13T21:15:16.087Z,9.93
2017-09-13T21:17:43.612Z,8.53
2017-09-13T21:20:11.216Z,10.33
2017-09-13T21:22:38.775Z,4.67
2017-09-13T21:25:06.284Z,3.40
2017-09-13T21:27:33.804Z,4.20
2017-09-13T21:30:01.695Z,11.73
2017-09-13T21:32:29.385Z,5.23
2017-09-13T21:34:56.918Z,9.97
2017-09-13T21:37:24.952Z,3.73
2017-09-13T21:39:52.520Z,1.40
2017-09-13T21:42:20.165Z,7.10
2017-09-13T21:44:47.720Z,7.40
2017-09-13T21:47:15.316Z,6.33
2017-09-13T21:49:42.879Z,10.00
2017-09-13T21:52:10.485Z,6.23
2017-09-13T21:54:38.017Z,4.27
2017-09-13T21:57:05.580Z,6.37
2017-09-13T21:59:33.140Z,4.60
2017-09-13T22:02:00.844Z,13.00
2017-09-13T22:04:28.404Z,6.27
2017-09-13T22:06:56.009Z,7.77
2017-09-13T22:09:23.620Z,4.90
2017-09-13T22:11:51.178Z,4.53
2017-09-13T22:14:18.708Z,10.13
2017-09-13T22:16:46.273Z,8.63
2017-09-13T22:19:13.981Z,6.70
2017-09-13T22:21:41.562Z,5.50
2017-09-13T22:24:09.104Z,5.73
2017-09-13T22:26:37.127Z,10.87
2017-09-13T22:29:04.690Z,3.63
2017-09-13T22:31:32.230Z,5.93
2017-09-13T22:33:59.838Z,9.40
2017-09-13T22:36:27.619Z,12.27
2017-09-13T22:38:55.367Z,3.80
2017-09-13T22:41:23.022Z,12.33
2017-09-13T22:43:50.559Z,2.93
2017-09-13T22:46:18.262Z,6.70
2017-09-13T22:48:45.938Z,6.50
2017-09-13T22:51:13.913Z,11.53
2017-09-13T22:53:41.547Z,6.80
2017-09-13T22:56:09.153Z,6.83
2017-09-13T22:58:36.728Z,13.77
2017-09-13T23:01:04.708Z,4.17
2017-09-13T23:03:32.296Z,3.10
2017-09-13T23:05:59.974Z,2.97
2017-09-13T23:08:27.723Z,3.43
2017-09-13T23:10:55.242Z,6.70
2017-09-13T23:13:25.419Z,7.20
2017-09-13T23:15:55.526Z,5.10
2017-09-13T23:18:23.045Z,2.17
2017-09-13T23:20:50.682Z,5.33
2017-09-13T23:23:19.853Z,5.57
2017-09-13T23:25:47.414Z,12.63
2017-09-13T23:28:15.133Z,4.10
2017-09-13T23:30:42.689Z,8.13
2017-09-13T23:33:10.980Z,9.73
2017-09-13T23:35:39.406Z,4.93
2017-09-13T23:38:07.036Z,7.43
2017-09-13T23:40:35.650Z,4.43
2017-09-13T23:43:04.195Z,6.53
2017-09-13T23:45:31.780Z,7.83
2017-09-13T23:47:59.372Z,10.57
2017-09-13T23:50:26.969Z,9.30
2017-09-13T23:52:54.815Z,8.53
2017-09-13T23:55:23.187Z,6.53
2017-09-13T23:57:50.775Z,9.67
